Time;durP1;ratioP1;P1;durP2;ratioP2;P2;SDS_P1;SDS_P2;PMS_P1;PMS_P2;Temp;Humidity;BMP_temperature;BMP_pressure;BME280_temperature;BME280_humidity;BME280_pressure;Samples;Min_cycle;Max_cycle;Signal;HPM_P1;HPM_P2
2023/10/15 00:01:05;;;;;;;2.37;1.70;;;;;;;;;;5049503;28;20232;-82
2023/10/15 00:03:33;;;;;;;2.80;1.87;;;;;;;;;;5050051;28;20255;-82
2023/10/15 00:06:00;;;;;;;3.97;1.70;;;;;;;;;;5049495;28;20225;-82
2023/10/15 00:08:27;;;;;;;1.77;1.67;;;;;;;;;;5050739;28;20222;-82
2023/10/15 00:10:54;;;;;;;2.10;1.70;;;;;;;;;;5053214;28;20274;-82
2023/10/15 00:13:23;;;;;;;2.53;1.83;;;;;;;;;;5053463;28;20206;-82
2023/10/15 00:15:51;;;;;;;3.37;1.90;;;;;;;;;;5053213;28;20245;-82
2023/10/15 00:18:18;;;;;;;3.00;1.47;;;;;;;;;;5053287;28;20321;-82
2023/10/15 00:20:47;;;;;;;1.70;1.60;;;;;;;;;;5053171;28;20226;-82
2023/10/15 00:23:14;;;;;;;4.17;1.70;;;;;;;;;;5053544;28;20206;-83
2023/10/15 00:25:47;;;;;;;1.80;1.70;;;;;;;;;;5053141;28;20229;-82
2023/10/15 00:28:15;;;;;;;3.10;1.70;;;;;;;;;;5053280;28;20233;-82
2023/10/15 00:30:44;;;;;;;2.60;1.60;;;;;;;;;;5052824;28;20680;-82
2023/10/15 00:33:12;;;;;;;2.43;2.00;;;;;;;;;;5053452;28;20244;-82
2023/10/15 00:35:44;;;;;;;2.83;1.87;;;;;;;;;;5052847;28;20587;-83
2023/10/15 00:38:16;;;;;;;3.30;2.20;;;;;;;;;;5052919;28;20700;-82
2023/10/15 00:40:45;;;;;;;8.07;1.93;;;;;;;;;;5045107;28;20240;-82
2023/10/15 00:43:13;;;;;;;2.20;1.80;;;;;;;;;;5053294;28;20202;-81
2023/10/15 00:45:43;;;;;;;3.90;2.00;;;;;;;;;;5052408;28;20230;-82
2023/10/15 00:48:22;;;;;;;2.40;2.20;;;;;;;;;;5053102;28;20229;-82
2023/10/15 00:50:49;;;;;;;1.97;1.80;;;;;;;;;;5052450;28;20768;-81
2023/10/15 00:53:24;;;;;;;2.07;1.63;;;;;;;;;;5052806;28;20221;-82
2023/10/15 00:55:52;;;;;;;1.80;1.70;;;;;;;;;;5052128;28;20234;-82
2023/10/15 00:58:31;;;;;;;3.47;2.07;;;;;;;;;;5047552;28;20234;-82
2023/10/15 01:01:00;;;;;;;2.57;1.60;;;;;;;;;;5051948;28;20739;-83
2023/10/15 01:03:31;;;;;;;3.83;1.70;;;;;;;;;;5061637;28;20305;-83
2023/10/15 01:06:04;;;;;;;4.63;1.80;;;;;;;;;;5062589;28;20229;-83
2023/10/15 01:08:35;;;;;;;3.43;1.97;;;;;;;;;;5044617;28;20803;-83
2023/10/15 01:11:11;;;;;;;5.23;2.07;;;;;;;;;;5056326;28;20227;-83
2023/10/15 01:13:39;;;;;;;4.70;1.73;;;;;;;;;;5052375;28;20209;-83
2023/10/15 01:16:08;;;;;;;3.73;1.60;;;;;;;;;;5054896;28;20229;-83
2023/10/15 01:18:37;;;;;;;2.73;1.63;;;;;;;;;;5051957;28;20226;-83
2023/10/15 01:21:09;;;;;;;3.43;1.80;;;;;;;;;;5059376;28;20234;-83
2023/10/15 01:23:44;;;;;;;1.83;1.63;;;;;;;;;;5052282;28;20245;-83
2023/10/15 01:26:23;;;;;;;2.00;1.90;;;;;;;;;;5052459;28;20261;-83
2023/10/15 01:28:51;;;;;;;2.10;2.00;;;;;;;;;;5042474;28;20228;-83
2023/10/15 01:31:18;;;;;;;2.57;1.90;;;;;;;;;;5055056;28;20279;-83
2023/10/15 01:33:49;;;;;;;2.53;1.97;;;;;;;;;;5061533;28;20584;-82
2023/10/15 01:36:19;;;;;;;1.80;1.70;;;;;;;;;;5052995;28;20317;-82
2023/10/15 01:38:46;;;;;;;1.87;1.60;;;;;;;;;;5065567;28;20232;-82
2023/10/15 01:41:19;;;;;;;2.70;2.10;;;;;;;;;;5071934;28;20228;-83
2023/10/15 01:43:48;;;;;;;2.37;2.03;;;;;;;;;;5052885;28;20193;-82
2023/10/15 01:46:44;;;;;;;2.50;1.80;;;;;;;;;;5061142;28;20235;-82
2023/10/15 01:49:06;;;;;;;2.93;1.63;;;;;;;;;;5033056;28;20306;-82
2023/10/15 01:51:39;;;;;;;3.10;1.77;;;;;;;;;;5062274;28;20237;-82
2023/10/15 01:54:09;;;;;;;3.23;1.90;;;;;;;;;;5066346;28;20224;-83
2023/10/15 01:56:37;;;;;;;4.30;2.07;;;;;;;;;;5052208;28;20252;-82
2023/10/15 01:59:08;;;;;;;1.77;1.63;;;;;;;;;;5059959;28;20233;-82
2023/10/15 02:01:37;;;;;;;2.17;1.97;;;;;;;;;;5054551;28;20246;-83
2023/10/15 02:04:04;;;;;;;1.80;1.70;;;;;;;;;;5065916;28;20221;-82
2023/10/15 02:06:42;;;;;;;2.60;1.93;;;;;;;;;;5053757;28;20237;-82
2023/10/15 02:09:12;;;;;;;2.00;1.80;;;;;;;;;;5056387;28;20614;-83
2023/10/15 02:11:47;;;;;;;3.20;1.90;;;;;;;;;;5050695;28;20230;-83
2023/10/15 02:14:20;;;;;;;3.53;1.97;;;;;;;;;;5070109;28;20231;-82
2023/10/15 02:16:49;;;;;;;1.77;1.67;;;;;;;;;;5092490;28;20229;-82
2023/10/15 02:19:19;;;;;;;3.90;1.73;;;;;;;;;;5092394;28;20727;-81
2023/10/15 02:21:50;;;;;;;3.00;1.67;;;;;;;;;;5092176;28;20247;-82
2023/10/15 02:24:18;;;;;;;3.07;2.03;;;;;;;;;;5073577;28;20289;-82
2023/10/15 02:26:46;;;;;;;1.70;1.60;;;;;;;;;;5072118;28;20221;-82
2023/10/15 02:29:35;;;;;;;2.07;1.73;;;;;;;;;;5072619;28;20218;-82
2023/10/15 02:32:08;;;;;;;1.93;1.83;;;;;;;;;;5071939;28;20236;-82
2023/10/15 02:34:40;;;;;;;1.80;1.70;;;;;;;;;;5072044;28;20664;-82
2023/10/15 02:37:10;;;;;;;1.90;1.80;;;;;;;;;;5071354;28;20252;-82
2023/10/15 02:39:39;;;;;;;2.20;2.10;;;;;;;;;;5053046;28;20295;-82
2023/10/15 02:42:08;;;;;;;2.70;1.80;;;;;;;;;;5050188;28;20309;-82
2023/10/15 02:44:38;;;;;;;2.10;1.90;;;;;;;;;;5050201;28;20210;-83
2023/10/15 02:47:10;;;;;;;2.00;1.90;;;;;;;;;;5049920;28;20232;-83
2023/10/15 02:49:51;;;;;;;1.83;1.73;;;;;;;;;;5052241;28;20226;-83
2023/10/15 02:52:19;;;;;;;3.50;2.13;;;;;;;;;;5070030;28;20233;-83
2023/10/15 02:54:46;;;;;;;1.60;1.50;;;;;;;;;;5041998;28;20209;-83
2023/10/15 02:57:16;;;;;;;3.50;1.90;;;;;;;;;;5049617;28;20222;-83
2023/10/15 02:59:50;;;;;;;3.60;2.17;;;;;;;;;;5049644;28;20210;-83
2023/10/15 03:02:18;;;;;;;2.07;1.93;;;;;;;;;;5049381;28;20229;-83
2023/10/15 03:04:50;;;;;;;7.10;2.13;;;;;;;;;;5049474;28;20553;-83
2023/10/15 03:07:26;;;;;;;1.90;1.80;;;;;;;;;;5049113;28;20230;-83
2023/10/15 03:09:56;;;;;;;2.47;2.27;;;;;;;;;;5042513;28;20293;-83
2023/10/15 03:12:25;;;;;;;2.03;1.83;;;;;;;;;;5049092;28;20221;-83
2023/10/15 03:14:53;;;;;;;1.90;1.80;;;;;;;;;;5052050;28;20202;-83
2023/10/15 03:17:25;;;;;;;3.77;2.03;;;;;;;;;;5048807;28;20229;-83
2023/10/15 03:19:54;;;;;;;3.00;2.10;;;;;;;;;;5047626;28;20210;-83
2023/10/15 03:22:23;;;;;;;1.80;1.70;;;;;;;;;;5049125;28;20226;-83
2023/10/15 03:24:53;;;;;;;2.37;2.17;;;;;;;;;;5049771;28;20202;-83
2023/10/15 03:27:23;;;;;;;2.40;1.90;;;;;;;;;;5049052;28;20234;-83
2023/10/15 03:29:56;;;;;;;2.27;1.87;;;;;;;;;;5041714;28;20237;-83
2023/10/15 03:32:27;;;;;;;2.50;2.10;;;;;;;;;;5049031;28;20232;-83
2023/10/15 03:34:59;;;;;;;4.23;2.10;;;;;;;;;;5049666;28;20291;-82
2023/10/15 03:37:27;;;;;;;1.93;1.83;;;;;;;;;;5012415;28;1047795;-83
2023/10/15 03:39:55;;;;;;;1.97;1.83;;;;;;;;;;5050193;28;20701;-83
2023/10/15 03:42:26;;;;;;;5.83;2.10;;;;;;;;;;5049749;28;20256;-83
2023/10/15 03:45:00;;;;;;;2.27;2.07;;;;;;;;;;5053943;28;20202;-83
2023/10/15 03:47:27;;;;;;;1.93;1.83;;;;;;;;;;5053306;28;20579;-83
2023/10/15 03:49:55;;;;;;;3.90;1.93;;;;;;;;;;5056069;28;20212;-83
2023/10/15 03:52:22;;;;;;;1.83;1.67;;;;;;;;;;5053521;28;20234;-83
2023/10/15 03:54:50;;;;;;;2.13;1.93;;;;;;;;;;5049524;28;20205;-83
2023/10/15 03:57:18;;;;;;;2.30;1.90;;;;;;;;;;5058989;28;20337;-83
2023/10/15 03:59:51;;;;;;;2.20;2.07;;;;;;;;;;5053883;28;20264;-83
2023/10/15 04:02:25;;;;;;;2.10;1.80;;;;;;;;;;5053569;28;20289;-83
2023/10/15 04:05:00;;;;;;;2.10;2.00;;;;;;;;;;5057989;28;20246;-83
2023/10/15 04:07:30;;;;;;;2.30;1.80;;;;;;;;;;5058307;28;20230;-83
2023/10/15 04:09:57;;;;;;;1.90;1.80;;;;;;;;;;5053863;28;20311;-83
2023/10/15 04:12:27;;;;;;;3.00;2.30;;;;;;;;;;5053404;28;20229;-82
2023/10/15 04:14:55;;;;;;;3.43;2.40;;;;;;;;;;5053829;28;20587;-83
2023/10/15 04:17:23;;;;;;;6.70;2.20;;;;;;;;;;5053306;28;20268;-83
2023/10/15 04:19:50;;;;;;;2.17;2.07;;;;;;;;;;5053173;28;20217;-83
2023/10/15 04:22:17;;;;;;;2.30;1.80;;;;;;;;;;5053186;28;20241;-83
2023/10/15 04:24:46;;;;;;;2.90;2.10;;;;;;;;;;5053085;28;20218;-83
2023/10/15 04:27:16;;;;;;;2.20;2.00;;;;;;;;;;5052919;28;20229;-83
2023/10/15 04:29:52;;;;;;;2.83;1.67;;;;;;;;;;5054920;28;20205;-83
2023/10/15 04:32:28;;;;;;;2.33;2.13;;;;;;;;;;5052591;28;20235;-82
2023/10/15 04:35:01;;;;;;;2.50;2.23;;;;;;;;;;5045991;28;20244;-82
2023/10/15 04:37:29;;;;;;;1.90;1.70;;;;;;;;;;5052711;28;20305;-82
2023/10/15 04:39:58;;;;;;;2.00;1.83;;;;;;;;;;5052875;28;20202;-83
2023/10/15 04:42:30;;;;;;;2.77;2.13;;;;;;;;;;5052773;28;20229;-83
2023/10/15 04:44:59;;;;;;;2.20;2.00;;;;;;;;;;5053129;28;20230;-82
2023/10/15 04:47:35;;;;;;;2.07;1.93;;;;;;;;;;5052251;28;20226;-82
2023/10/15 04:50:14;;;;;;;1.83;1.73;;;;;;;;;;5051932;28;20707;-83
2023/10/15 04:52:42;;;;;;;2.57;2.20;;;;;;;;;;5053088;28;20234;-83
2023/10/15 04:55:10;;;;;;;2.27;2.07;;;;;;;;;;5052149;28;20707;-83
2023/10/15 04:57:39;;;;;;;2.80;1.90;;;;;;;;;;5052596;28;20245;-83
2023/10/15 05:00:07;;;;;;;2.10;2.00;;;;;;;;;;5051970;28;20293;-83
2023/10/15 05:02:34;;;;;;;3.80;1.83;;;;;;;;;;5052053;28;20210;-83
2023/10/15 05:05:01;;;;;;;2.70;2.00;;;;;;;;;;5052733;28;20202;-83
2023/10/15 05:07:30;;;;;;;3.90;1.80;;;;;;;;;;5052247;28;20276;-82
2023/10/15 05:09:58;;;;;;;2.20;2.03;;;;;;;;;;5052195;28;20213;-83
2023/10/15 05:12:25;;;;;;;2.10;2.00;;;;;;;;;;5054966;28;20237;-83
2023/10/15 05:14:52;;;;;;;2.30;2.13;;;;;;;;;;5052410;28;20202;-83
2023/10/15 05:17:20;;;;;;;2.43;2.13;;;;;;;;;;5051897;28;20237;-83
2023/10/15 05:19:52;;;;;;;3.27;2.27;;;;;;;;;;5052010;28;20240;-83
2023/10/15 05:22:20;;;;;;;2.10;2.00;;;;;;;;;;5051670;28;20251;-83
2023/10/15 05:24:49;;;;;;;2.20;2.10;;;;;;;;;;5052436;28;20279;-83
2023/10/15 05:27:16;;;;;;;3.07;2.13;;;;;;;;;;5051889;28;20226;-82
2023/10/15 05:29:43;;;;;;;1.90;1.80;;;;;;;;;;5052101;28;20260;-82
2023/10/15 05:32:10;;;;;;;2.40;2.20;;;;;;;;;;5063127;28;20233;-83
2023/10/15 05:34:37;;;;;;;1.73;1.73;;;;;;;;;;5052434;28;20673;-83
2023/10/15 05:37:04;;;;;;;3.47;2.17;;;;;;;;;;5051853;28;20229;-83
2023/10/15 05:39:31;;;;;;;4.47;2.00;;;;;;;;;;5051979;28;20225;-83
2023/10/15 05:41:59;;;;;;;4.40;2.23;;;;;;;;;;5051509;28;20225;-83
2023/10/15 05:44:27;;;;;;;2.30;2.10;;;;;;;;;;5052015;28;20673;-83
2023/10/15 05:46:54;;;;;;;5.07;1.93;;;;;;;;;;5064718;28;20222;-83
2023/10/15 05:49:21;;;;;;;2.33;1.93;;;;;;;;;;5051454;28;20230;-83
2023/10/15 05:51:49;;;;;;;2.17;2.07;;;;;;;;;;5053349;28;20234;-83
2023/10/15 05:54:18;;;;;;;2.40;2.20;;;;;;;;;;5051832;28;20231;-83
2023/10/15 05:56:45;;;;;;;2.47;2.30;;;;;;;;;;5054269;28;20233;-83
2023/10/15 05:59:14;;;;;;;2.20;2.10;;;;;;;;;;5051428;28;20232;-83
2023/10/15 06:01:42;;;;;;;1.90;1.80;;;;;;;;;;5046305;28;20232;-83
2023/10/15 06:04:09;;;;;;;5.47;2.20;;;;;;;;;;5045526;28;20569;-83
2023/10/15 06:06:36;;;;;;;1.80;1.70;;;;;;;;;;5068134;28;20225;-83
2023/10/15 06:09:05;;;;;;;2.30;2.10;;;;;;;;;;5055296;28;20233;-84
2023/10/15 06:11:32;;;;;;;5.83;2.13;;;;;;;;;;5051229;28;20331;-84
2023/10/15 06:13:59;;;;;;;3.17;2.00;;;;;;;;;;5060284;28;20217;-83
2023/10/15 06:16:27;;;;;;;5.90;2.27;;;;;;;;;;5051367;28;20230;-84
2023/10/15 06:18:54;;;;;;;2.23;2.13;;;;;;;;;;5074341;28;20225;-83
2023/10/15 06:21:21;;;;;;;2.97;2.07;;;;;;;;;;5059575;28;20238;-83
2023/10/15 06:23:49;;;;;;;2.43;2.00;;;;;;;;;;5051727;28;20742;-85
2023/10/15 06:26:16;;;;;;;7.73;2.40;;;;;;;;;;5051117;28;20226;-84
2023/10/15 06:28:43;;;;;;;2.40;2.30;;;;;;;;;;5050694;28;20226;-84
2023/10/15 06:31:10;;;;;;;2.70;2.50;;;;;;;;;;5050727;28;20230;-85
2023/10/15 06:33:40;;;;;;;5.57;2.20;;;;;;;;;;5051422;28;20206;-85
2023/10/15 06:36:07;;;;;;;2.50;2.30;;;;;;;;;;5051171;28;20225;-85
2023/10/15 06:38:34;;;;;;;2.73;2.53;;;;;;;;;;5059636;28;20234;-88
2023/10/15 06:41:01;;;;;;;2.83;2.53;;;;;;;;;;5054617;28;20592;-86
2023/10/15 06:43:28;;;;;;;3.83;2.60;;;;;;;;;;5055546;28;20202;-84
2023/10/15 06:45:56;;;;;;;6.03;3.20;;;;;;;;;;5069877;28;20225;-84
2023/10/15 06:48:23;;;;;;;6.27;3.20;;;;;;;;;;5056013;28;20241;-85
2023/10/15 06:50:51;;;;;;;3.30;2.70;;;;;;;;;;5050540;28;20250;-84
2023/10/15 06:53:18;;;;;;;2.40;2.30;;;;;;;;;;5057510;28;20296;-84
2023/10/15 06:55:46;;;;;;;2.67;2.43;;;;;;;;;;5054093;28;20234;-84
2023/10/15 06:58:13;;;;;;;5.43;2.43;;;;;;;;;;5051250;28;20218;-83
2023/10/15 07:00:40;;;;;;;8.40;2.77;;;;;;;;;;5050686;28;20229;-84
2023/10/15 07:03:07;;;;;;;4.83;3.10;;;;;;;;;;5051243;28;20205;-84
2023/10/15 07:05:36;;;;;;;5.13;2.70;;;;;;;;;;5050481;28;20233;-83
2023/10/15 07:08:05;;;;;;;3.63;2.97;;;;;;;;;;5058476;28;20230;-84
2023/10/15 07:10:33;;;;;;;7.73;2.90;;;;;;;;;;5049958;28;20330;-86
2023/10/15 07:13:01;;;;;;;7.03;2.90;;;;;;;;;;5042692;28;20206;-85
2023/10/15 07:15:29;;;;;;;3.17;2.83;;;;;;;;;;5050541;28;20316;-85
2023/10/15 07:17:56;;;;;;;6.97;3.13;;;;;;;;;;5050496;28;20296;-84
2023/10/15 07:20:24;;;;;;;5.20;3.20;;;;;;;;;;5054468;28;20234;-84
2023/10/15 07:22:53;;;;;;;6.23;2.80;;;;;;;;;;5054803;28;20202;-85
2023/10/15 07:25:24;;;;;;;6.77;3.10;;;;;;;;;;5054405;28;20264;-85
2023/10/15 07:27:51;;;;;;;7.50;2.90;;;;;;;;;;5064874;28;20656;-84
2023/10/15 07:30:20;;;;;;;3.63;2.77;;;;;;;;;;5074160;28;20205;-85
2023/10/15 07:32:47;;;;;;;7.40;2.67;;;;;;;;;;5073097;28;20255;-84
2023/10/15 07:35:15;;;;;;;8.97;2.60;;;;;;;;;;5054061;28;20202;-85
2023/10/15 07:37:43;;;;;;;5.40;2.70;;;;;;;;;;5059151;28;20252;-85
2023/10/15 07:40:16;;;;;;;5.50;2.43;;;;;;;;;;5073943;28;20205;-84
2023/10/15 07:42:45;;;;;;;5.80;2.70;;;;;;;;;;5074661;28;20233;-84
2023/10/15 07:45:12;;;;;;;4.00;2.27;;;;;;;;;;5073861;28;20210;-84
2023/10/15 07:47:40;;;;;;;3.90;2.20;;;;;;;;;;5057124;28;20582;-84
2023/10/15 07:50:07;;;;;;;6.50;2.40;;;;;;;;;;5064498;28;20664;-83
2023/10/15 07:52:34;;;;;;;9.10;2.50;;;;;;;;;;5054146;28;20210;-83
2023/10/15 07:55:01;;;;;;;3.27;2.53;;;;;;;;;;5054140;28;20208;-83
2023/10/15 07:57:28;;;;;;;3.73;2.10;;;;;;;;;;5053849;28;20220;-83
2023/10/15 07:59:58;;;;;;;2.50;2.30;;;;;;;;;;5053841;28;20213;-83
2023/10/15 08:02:26;;;;;;;3.93;2.27;;;;;;;;;;5053671;28;20253;-84
2023/10/15 08:04:54;;;;;;;3.27;2.20;;;;;;;;;;5054314;28;20707;-83
2023/10/15 08:07:21;;;;;;;3.17;2.50;;;;;;;;;;5053108;28;20249;-84
2023/10/15 08:09:49;;;;;;;2.97;2.40;;;;;;;;;;5053595;28;20202;-83
2023/10/15 08:12:17;;;;;;;6.77;2.17;;;;;;;;;;5053237;28;20230;-83
2023/10/15 08:14:44;;;;;;;4.63;2.00;;;;;;;;;;5054138;28;20210;-84
2023/10/15 08:17:13;;;;;;;4.40;2.30;;;;;;;;;;5053331;28;20225;-84
2023/10/15 08:19:40;;;;;;;4.90;2.30;;;;;;;;;;5053652;28;20206;-84
2023/10/15 08:22:08;;;;;;;5.30;2.43;;;;;;;;;;5052925;28;20230;-87
2023/10/15 08:24:35;;;;;;;4.37;2.00;;;;;;;;;;5054063;28;20206;-87
2023/10/15 08:27:02;;;;;;;2.73;2.43;;;;;;;;;;5052861;28;20225;-88
2023/10/15 08:29:29;;;;;;;6.70;2.27;;;;;;;;;;5053397;28;20627;-87
2023/10/15 08:31:57;;;;;;;2.83;2.50;;;;;;;;;;5052634;28;20225;-85
2023/10/15 08:34:25;;;;;;;4.63;2.30;;;;;;;;;;5053442;28;20688;-83
2023/10/15 08:36:53;;;;;;;2.10;1.90;;;;;;;;;;5051094;28;20616;-84
2023/10/15 08:39:23;;;;;;;1.77;1.67;;;;;;;;;;5048499;28;20602;-83
2023/10/15 08:41:54;;;;;;;5.53;1.83;;;;;;;;;;5050894;28;20221;-84
2023/10/15 08:44:21;;;;;;;2.07;1.90;;;;;;;;;;5047410;28;20209;-83
2023/10/15 08:46:48;;;;;;;4.20;2.30;;;;;;;;;;5052803;28;20226;-83
2023/10/15 08:49:16;;;;;;;8.50;2.47;;;;;;;;;;5053136;28;20230;-84
2023/10/15 08:51:45;;;;;;;3.70;1.70;;;;;;;;;;5052679;28;20232;-83
2023/10/15 08:54:14;;;;;;;3.90;2.07;;;;;;;;;;5053024;28;20209;-83
2023/10/15 08:56:43;;;;;;;2.37;2.17;;;;;;;;;;5052670;28;20264;-83
2023/10/15 08:59:12;;;;;;;1.90;1.67;;;;;;;;;;5065474;28;20217;-83
2023/10/15 09:01:42;;;;;;;2.40;1.90;;;;;;;;;;5055972;28;20775;-85
2023/10/15 09:04:09;;;;;;;1.80;1.70;;;;;;;;;;5052998;28;20692;-82
2023/10/15 09:06:37;;;;;;;4.27;2.10;;;;;;;;;;5052158;28;20230;-83
2023/10/15 09:09:06;;;;;;;2.17;1.97;;;;;;;;;;5052618;28;20226;-83
2023/10/15 09:11:33;;;;;;;2.53;2.03;;;;;;;;;;5052149;28;20230;-84
2023/10/15 09:14:02;;;;;;;5.10;2.33;;;;;;;;;;5053113;28;20210;-84
2023/10/15 09:16:29;;;;;;;3.10;1.90;;;;;;;;;;5052330;28;20267;-86
2023/10/15 09:18:57;;;;;;;2.23;1.63;;;;;;;;;;5052568;28;20237;-86
2023/10/15 09:21:26;;;;;;;2.23;1.60;;;;;;;;;;5066831;28;20233;-87
2023/10/15 09:23:54;;;;;;;4.00;1.60;;;;;;;;;;5064052;28;20617;-88
2023/10/15 09:26:22;;;;;;;2.57;1.60;;;;;;;;;;5066743;28;20225;-87
2023/10/15 09:28:51;;;;;;;2.90;1.70;;;;;;;;;;5054787;28;20233;-84
2023/10/15 09:31:20;;;;;;;3.23;1.80;;;;;;;;;;5051806;28;20756;-85
2023/10/15 09:33:51;;;;;;;1.60;1.50;;;;;;;;;;5069341;28;20300;-84
2023/10/15 09:36:18;;;;;;;4.00;1.57;;;;;;;;;;5052820;28;20234;-86
2023/10/15 09:38:46;;;;;;;2.33;1.30;;;;;;;;;;5052070;28;20237;-87
2023/10/15 09:41:13;;;;;;;1.70;1.60;;;;;;;;;;5046012;28;20770;-84
2023/10/15 09:43:43;;;;;;;3.80;1.70;;;;;;;;;;5051844;28;20782;-84
2023/10/15 09:46:12;;;;;;;1.93;1.43;;;;;;;;;;5063990;28;20255;-85
2023/10/15 09:48:40;;;;;;;2.70;1.93;;;;;;;;;;5048406;28;20321;-86
2023/10/15 09:51:08;;;;;;;1.63;1.50;;;;;;;;;;5052616;28;20230;-82
2023/10/15 09:53:35;;;;;;;4.90;2.27;;;;;;;;;;5052363;28;20217;-87
2023/10/15 09:56:07;;;;;;;2.30;1.60;;;;;;;;;;5054419;28;20233;-86
2023/10/15 09:58:34;;;;;;;1.50;1.40;;;;;;;;;;5072002;28;20676;-86
2023/10/15 10:01:08;;;;;;;1.13;1.13;;;;;;;;;;5052537;28;20329;-88
2023/10/15 10:03:57;;;;;;;1.53;1.43;;;;;;;;;;5052842;28;20665;-86
2023/10/15 10:06:31;;;;;;;1.60;1.50;;;;;;;;;;5051398;28;20230;-85
2023/10/15 10:09:06;;;;;;;4.70;1.70;;;;;;;;;;5045086;28;20258;-84
2023/10/15 10:11:45;;;;;;;2.43;1.80;;;;;;;;;;5054383;28;20226;-84
2023/10/15 10:14:23;;;;;;;2.27;1.77;;;;;;;;;;5043386;28;20261;-83
2023/10/15 10:16:53;;;;;;;1.83;1.73;;;;;;;;;;5050898;28;20461;-84
2023/10/15 10:19:20;;;;;;;3.20;1.50;;;;;;;;;;5049623;28;20253;-84
2023/10/15 10:21:48;;;;;;;1.47;1.33;;;;;;;;;;5057947;28;20233;-87
2023/10/15 10:24:17;;;;;;;5.60;1.60;;;;;;;;;;5046455;28;20217;-85
2023/10/15 10:26:49;;;;;;;2.77;1.70;;;;;;;;;;5051445;28;20245;-85
2023/10/15 10:29:18;;;;;;;2.23;1.60;;;;;;;;;;5043135;28;20233;-85
2023/10/15 10:31:45;;;;;;;1.50;1.37;;;;;;;;;;5054211;28;20625;-85
2023/10/15 10:34:14;;;;;;;3.53;1.37;;;;;;;;;;5053811;28;20690;-85
2023/10/15 10:36:41;;;;;;;2.47;1.70;;;;;;;;;;5069741;28;20286;-84
2023/10/15 10:39:13;;;;;;;1.57;1.43;;;;;;;;;;5069776;28;20228;-85
2023/10/15 10:41:41;;;;;;;3.53;1.63;;;;;;;;;;5049995;28;20233;-85
2023/10/15 10:44:08;;;;;;;1.77;1.57;;;;;;;;;;5050347;28;20209;-86
2023/10/15 10:46:42;;;;;;;1.70;1.57;;;;;;;;;;5049655;28;20241;-87
2023/10/15 10:49:13;;;;;;;2.33;1.40;;;;;;;;;;5053229;28;20233;-84
2023/10/15 10:51:42;;;;;;;2.47;1.67;;;;;;;;;;5064939;28;20264;-85
2023/10/15 10:54:27;;;;;;;2.07;1.47;;;;;;;;;;5058582;28;20216;-84
2023/10/15 10:57:12;;;;;;;2.10;1.20;;;;;;;;;;5049340;28;20221;-85
2023/10/15 10:59:42;;;;;;;1.40;1.30;;;;;;;;;;5057067;28;20232;-84
2023/10/15 11:02:13;;;;;;;1.23;1.20;;;;;;;;;;5069118;28;20227;-85
2023/10/15 11:04:40;;;;;;;1.40;1.00;;;;;;;;;;5061728;28;20691;-85
2023/10/15 11:07:10;;;;;;;1.10;1.10;;;;;;;;;;5049224;28;20406;-85
2023/10/15 11:09:38;;;;;;;0.97;0.97;;;;;;;;;;5050273;28;20273;-85
2023/10/15 11:12:07;;;;;;;0.80;0.80;;;;;;;;;;5048256;28;20279;-85
2023/10/15 11:14:34;;;;;;;1.40;1.30;;;;;;;;;;5056275;28;20216;-85
2023/10/15 11:17:02;;;;;;;1.30;1.20;;;;;;;;;;5069139;28;20706;-85
2023/10/15 11:19:30;;;;;;;0.97;0.97;;;;;;;;;;5069910;28;20232;-85
2023/10/15 11:21:57;;;;;;;1.10;1.00;;;;;;;;;;5050939;28;20230;-84
2023/10/15 11:24:27;;;;;;;1.27;1.00;;;;;;;;;;5050167;28;20206;-84
2023/10/15 11:26:55;;;;;;;3.13;1.37;;;;;;;;;;5048937;28;20720;-85
2023/10/15 11:29:23;;;;;;;1.03;1.03;;;;;;;;;;5049692;28;20292;-84
2023/10/15 11:31:50;;;;;;;0.80;0.80;;;;;;;;;;5049750;28;20287;-86
2023/10/15 11:34:19;;;;;;;1.23;1.13;;;;;;;;;;5049147;28;20210;-85
2023/10/15 11:36:48;;;;;;;1.37;1.10;;;;;;;;;;5057073;28;20717;-84
2023/10/15 11:39:19;;;;;;;1.03;0.93;;;;;;;;;;5057840;28;20245;-85
2023/10/15 11:41:51;;;;;;;1.60;1.00;;;;;;;;;;5048606;28;20600;-85
2023/10/15 11:44:25;;;;;;;3.87;0.93;;;;;;;;;;5041978;28;21000;-84
2023/10/15 11:46:52;;;;;;;0.77;0.77;;;;;;;;;;5057647;28;20285;-87
2023/10/15 11:49:22;;;;;;;1.20;1.10;;;;;;;;;;5044865;28;20246;-86
2023/10/15 11:51:49;;;;;;;1.37;1.20;;;;;;;;;;5048235;28;20226;-88
2023/10/15 11:54:16;;;;;;;0.90;0.90;;;;;;;;;;5041895;28;20226;-88
2023/10/15 11:56:47;;;;;;;1.27;0.97;;;;;;;;;;5057942;28;20237;-88
2023/10/15 11:59:16;;;;;;;1.13;1.00;;;;;;;;;;5049780;28;20297;-90
2023/10/15 12:01:44;;;;;;;0.80;0.80;;;;;;;;;;5049247;28;20733;-91
2023/10/15 12:04:12;;;;;;;1.30;1.20;;;;;;;;;;5058743;28;20561;-88
2023/10/15 12:06:39;;;;;;;1.87;1.30;;;;;;;;;;5053332;28;20791;-89
2023/10/15 12:09:12;;;;;;;1.00;1.00;;;;;;;;;;5061602;28;20717;-88
2023/10/15 12:11:39;;;;;;;2.07;1.17;;;;;;;;;;5052689;28;20225;-89
2023/10/15 12:14:06;;;;;;;2.03;1.30;;;;;;;;;;5060435;28;20205;-91
2023/10/15 12:16:39;;;;;;;1.30;1.17;;;;;;;;;;5053083;28;20240;-87
2023/10/15 12:19:08;;;;;;;1.70;1.20;;;;;;;;;;5061536;28;20226;-87
2023/10/15 12:21:35;;;;;;;2.73;1.40;;;;;;;;;;5052800;28;20225;-87
2023/10/15 12:24:02;;;;;;;0.90;0.90;;;;;;;;;;5061674;28;20214;-86
2023/10/15 12:26:30;;;;;;;1.23;1.00;;;;;;;;;;5052978;28;20312;-88
2023/10/15 12:28:57;;;;;;;4.50;1.20;;;;;;;;;;5053189;28;20222;-90
2023/10/15 12:31:24;;;;;;;7.90;1.30;;;;;;;;;;5052482;28;20230;-90
2023/10/15 12:33:55;;;;;;;1.27;0.90;;;;;;;;;;5061344;28;20213;-87
2023/10/15 12:36:22;;;;;;;2.50;1.00;;;;;;;;;;5034651;28;20247;-88
2023/10/15 12:38:49;;;;;;;2.40;0.90;;;;;;;;;;5042069;28;20248;-86
2023/10/15 12:41:21;;;;;;;0.83;0.83;;;;;;;;;;5052249;28;21034;-86
2023/10/15 12:43:49;;;;;;;0.90;0.90;;;;;;;;;;5053120;28;20260;-87
2023/10/15 12:46:17;;;;;;;0.90;0.90;;;;;;;;;;5054036;28;20234;-88
2023/10/15 12:48:44;;;;;;;1.77;1.00;;;;;;;;;;5054145;28;20225;-87
2023/10/15 12:51:13;;;;;;;0.97;0.97;;;;;;;;;;5053310;28;20229;-86
2023/10/15 12:53:40;;;;;;;0.80;0.80;;;;;;;;;;5056162;28;20260;-87
2023/10/15 12:56:07;;;;;;;0.80;0.80;;;;;;;;;;5071736;28;20229;-87
2023/10/15 12:58:34;;;;;;;0.80;0.80;;;;;;;;;;5074366;28;20308;-86
2023/10/15 13:01:01;;;;;;;1.10;1.00;;;;;;;;;;5050913;28;20398;-87
2023/10/15 13:03:29;;;;;;;0.83;0.83;;;;;;;;;;5057420;28;20247;-86
2023/10/15 13:05:56;;;;;;;1.17;1.07;;;;;;;;;;5063551;28;20303;-87
2023/10/15 13:08:24;;;;;;;0.97;0.97;;;;;;;;;;5052426;28;20279;-86
2023/10/15 13:10:52;;;;;;;1.40;1.00;;;;;;;;;;5051616;28;20233;-86
2023/10/15 13:13:19;;;;;;;0.90;0.90;;;;;;;;;;5052459;28;20202;-87
2023/10/15 13:15:47;;;;;;;1.07;1.07;;;;;;;;;;5058096;28;20229;-87
2023/10/15 13:18:14;;;;;;;3.83;1.40;;;;;;;;;;5072308;28;20227;-88
2023/10/15 13:20:42;;;;;;;1.20;1.10;;;;;;;;;;5065364;28;20229;-87
2023/10/15 13:23:09;;;;;;;0.90;0.90;;;;;;;;;;5052203;28;20206;-86
2023/10/15 13:25:38;;;;;;;3.17;1.17;;;;;;;;;;5067063;28;20226;-87
2023/10/15 13:28:05;;;;;;;1.20;1.10;;;;;;;;;;5052629;28;20569;-87
2023/10/15 13:30:33;;;;;;;4.67;1.30;;;;;;;;;;5052253;28;20241;-87
2023/10/15 13:33:01;;;;;;;1.13;1.03;;;;;;;;;;5054025;28;20209;-86
2023/10/15 13:35:29;;;;;;;1.20;1.17;;;;;;;;;;5052991;28;20309;-86
2023/10/15 13:37:58;;;;;;;1.00;1.00;;;;;;;;;;5052471;28;20627;-85
2023/10/15 13:40:25;;;;;;;1.10;1.00;;;;;;;;;;5046549;28;20229;-87
2023/10/15 13:42:54;;;;;;;0.83;0.83;;;;;;;;;;5067573;28;20205;-86
2023/10/15 13:45:23;;;;;;;0.80;0.80;;;;;;;;;;5051225;28;20693;-86
2023/10/15 13:47:50;;;;;;;1.00;1.00;;;;;;;;;;5051660;28;20218;-86
2023/10/15 13:50:18;;;;;;;1.33;1.03;;;;;;;;;;5043118;28;20236;-85
2023/10/15 13:52:46;;;;;;;1.23;1.10;;;;;;;;;;5072141;28;20270;-86
2023/10/15 13:55:13;;;;;;;1.10;1.00;;;;;;;;;;5065656;28;20293;-83
2023/10/15 13:57:40;;;;;;;1.37;1.13;;;;;;;;;;5057888;28;20229;-86
2023/10/15 14:00:12;;;;;;;1.47;1.07;;;;;;;;;;5054553;28;20202;-85
2023/10/15 14:02:40;;;;;;;1.10;1.10;;;;;;;;;;5057904;28;20248;-86
2023/10/15 14:05:08;;;;;;;1.70;0.87;;;;;;;;;;5051290;28;20204;-84
2023/10/15 14:07:35;;;;;;;1.10;1.10;;;;;;;;;;5065074;28;20278;-84
2023/10/15 14:10:03;;;;;;;1.30;1.30;;;;;;;;;;5054272;28;20222;-84
2023/10/15 14:12:30;;;;;;;1.10;1.00;;;;;;;;;;5051546;28;20221;-84
2023/10/15 14:14:57;;;;;;;2.50;1.27;;;;;;;;;;5060126;28;20206;-84
2023/10/15 14:17:26;;;;;;;0.93;0.93;;;;;;;;;;5051150;28;20233;-84
2023/10/15 14:19:55;;;;;;;1.00;1.00;;;;;;;;;;5051048;28;20202;-84
2023/10/15 14:22:23;;;;;;;1.00;1.00;;;;;;;;;;5061653;28;20316;-84
2023/10/15 14:24:50;;;;;;;0.90;0.90;;;;;;;;;;5071616;28;20250;-84
2023/10/15 14:27:17;;;;;;;1.20;1.10;;;;;;;;;;5070449;28;20240;-84
2023/10/15 14:29:44;;;;;;;0.90;0.90;;;;;;;;;;5062794;28;20234;-84
2023/10/15 14:32:11;;;;;;;3.07;1.10;;;;;;;;;;5052025;28;20226;-85
2023/10/15 14:34:40;;;;;;;1.20;1.10;;;;;;;;;;5056415;28;20678;-83
2023/10/15 14:37:07;;;;;;;1.43;1.33;;;;;;;;;;5053098;28;20704;-83
2023/10/15 14:39:34;;;;;;;3.80;1.20;;;;;;;;;;5055762;28;20221;-83
2023/10/15 14:42:01;;;;;;;1.20;1.10;;;;;;;;;;5070025;28;20229;-83
2023/10/15 14:44:29;;;;;;;1.13;0.90;;;;;;;;;;5053212;28;20237;-84
2023/10/15 14:46:56;;;;;;;1.90;1.07;;;;;;;;;;5050621;28;20230;-84
2023/10/15 14:49:24;;;;;;;3.40;0.90;;;;;;;;;;5058890;28;20284;-84
2023/10/15 14:51:52;;;;;;;0.70;0.70;;;;;;;;;;5057116;28;20834;-84
2023/10/15 14:54:20;;;;;;;1.07;1.03;;;;;;;;;;5063196;28;20220;-84